Beogradi, Serbia

05:35 PM CET on shkurt 08, 2016 (GMT +0100)
Netiks Zvezdara | | Change Station
CLOSE
Current Station
Personal Weather Stations
Location: Beograd,
Elevation: 545 ft
Nearby Weather Stations

Elev 545 ft 44.80 °N, 20.49 °E | Updated 57 seconds ago

Clear
i kthjellet
53.6 °F
Feels Like 53.6 °F
N
3.8
Era e paqendrueshme Era from VL
Gusts 6.0 mph

Sot
High -- | Low -- °F
--% Chance of Precip.
Yesterday
High -- | Low -- °F
Precip. -- ne
Presioni 30.01 ne
Visioni -9999.0 milje
Clouds
Pika E Veses 32 °F
Lageshtira E ajrit 43%
Rainfall 0.00 ne
Snow Depth Not available.
6:49 AM 4:55 PM
New, 0% visible
METAR LYBE 081630Z 13012KT CAVOK 12/03 Q1016 NOSIG
Presioni 30.01 ne
Visioni -9999.0 milje
Clouds
Pika E Veses 32 °F
Lageshtira E ajrit 43%
Rainfall 0.00 ne
Snow Depth Not available.
6:49 AM 4:55 PM
New, 0% visible
METAR LYBE 081630Z 13012KT CAVOK 12/03 Q1016 NOSIG

10-Day Weather Forecast

Almanac

Astronomy

Feb. 08, 2016 Rise Set
Actual Time
Civil Twilight
Nautical Twilight
Astronomical Twilight
Moon
Length Of Visible Light
Length of Day
Tomorrow will be .
, % of the Moon is Illuminated

Today's Extremes

Country Highs Country Lows

Community

WunderPhotos

Upload Photos

1,891,461 photos uploaded!

WunderBlog® & News

Nearby

Air Quality

  Air Quality AQ Index Pollutant
Not available.

Snow Depth

Station Depth Elevation

Earthquake Activity

City Distance Mag. Time & Date
Minimum magnitude displayed is 2.5.

Coastal Water Temperatures

Vend Temperatura

Stations

Nearby Weather Stations

Station Location Temp Ftohtesia E erses Pika E Veses Lageshtira E ajrit Era Precip. Elev te freskuara(Te Dhenat) Type